sensor_id;sensor_type;location;lat;lon;timestamp;pressure;altitude;pressure_sealevel;temperature;humidity
498;BME280;39559;48.630;9.162;2024-03-22T00:00:54;98246.72;;;4.60;100.00
498;BME280;39559;48.630;9.162;2024-03-22T00:03:19;98244.28;;;4.36;100.00
498;BME280;39559;48.630;9.162;2024-03-22T00:05:45;98246.91;;;4.25;100.00
498;BME280;39559;48.630;9.162;2024-03-22T00:10:14;98238.31;;;4.37;100.00
498;BME280;39559;48.630;9.162;2024-03-22T00:12:40;98240.81;;;4.46;100.00
498;BME280;39559;48.630;9.162;2024-03-22T00:15:06;98240.19;;;3.98;100.00
498;BME280;39559;48.630;9.162;2024-03-22T00:17:32;98233.44;;;3.72;100.00
498;BME280;39559;48.630;9.162;2024-03-22T00:19:58;98241.13;;;3.74;100.00
498;BME280;39559;48.630;9.162;2024-03-22T00:22:24;98242.75;;;3.99;100.00
498;BME280;39559;48.630;9.162;2024-03-22T00:24:49;98243.59;;;4.08;100.00
498;BME280;39559;48.630;9.162;2024-03-22T00:27:15;98237.50;;;4.24;100.00
498;BME280;39559;48.630;9.162;2024-03-22T00:29:40;98246.16;;;4.00;100.00
498;BME280;39559;48.630;9.162;2024-03-22T00:34:12;98238.56;;;3.69;100.00
498;BME280;39559;48.630;9.162;2024-03-22T00:36:38;98239.47;;;3.56;100.00
498;BME280;39559;48.630;9.162;2024-03-22T00:39:03;98242.03;;;3.54;100.00
498;BME280;39559;48.630;9.162;2024-03-22T00:41:29;98236.88;;;3.70;100.00
498;BME280;39559;48.630;9.162;2024-03-22T00:43:54;98234.28;;;3.73;100.00
498;BME280;39559;48.630;9.162;2024-03-22T00:46:20;98229.09;;;3.83;100.00
498;BME280;39559;48.630;9.162;2024-03-22T00:48:45;98220.47;;;4.00;100.00
498;BME280;39559;48.630;9.162;2024-03-22T00:51:11;98212.75;;;4.00;100.00
498;BME280;39559;48.630;9.162;2024-03-22T00:53:36;98213.69;;;3.83;100.00
498;BME280;39559;48.630;9.162;2024-03-22T00:58:11;98206.03;;;3.74;100.00
498;BME280;39559;48.630;9.162;2024-03-22T01:00:36;98205.19;;;3.72;100.00
498;BME280;39559;48.630;9.162;2024-03-22T01:03:03;98207.84;;;3.41;100.00
498;BME280;39559;48.630;9.162;2024-03-22T01:05:29;98205.28;;;3.32;100.00
498;BME280;39559;48.630;9.162;2024-03-22T01:07:54;98195.88;;;3.39;100.00
498;BME280;39559;48.630;9.162;2024-03-22T01:10:20;98203.53;;;3.43;100.00
498;BME280;39559;48.630;9.162;2024-03-22T01:12:45;98191.59;;;3.41;100.00
498;BME280;39559;48.630;9.162;2024-03-22T01:15:10;98182.22;;;3.26;100.00
498;BME280;39559;48.630;9.162;2024-03-22T01:17:36;98183.91;;;3.27;100.00
498;BME280;39559;48.630;9.162;2024-03-22T01:22:09;98185.66;;;2.97;100.00
498;BME280;39559;48.630;9.162;2024-03-22T01:24:35;98182.19;;;3.32;100.00
498;BME280;39559;48.630;9.162;2024-03-22T01:27:00;98174.47;;;3.34;100.00
498;BME280;39559;48.630;9.162;2024-03-22T01:29:26;98171.03;;;3.39;100.00
498;BME280;39559;48.630;9.162;2024-03-22T01:31:55;98165.97;;;3.22;100.00
498;BME280;39559;48.630;9.162;2024-03-22T01:34:21;98183.09;;;3.00;100.00
498;BME280;39559;48.630;9.162;2024-03-22T01:36:46;98185.63;;;3.13;100.00
498;BME280;39559;48.630;9.162;2024-03-22T01:39:12;98195.94;;;2.96;100.00
498;BME280;39559;48.630;9.162;2024-03-22T01:41:39;98180.53;;;2.93;100.00
498;BME280;39559;48.630;9.162;2024-03-22T01:46:08;98156.59;;;2.95;100.00
498;BME280;39559;48.630;9.162;2024-03-22T01:48:34;98161.72;;;2.98;100.00
498;BME280;39559;48.630;9.162;2024-03-22T01:51:00;98154.84;;;3.16;100.00
498;BME280;39559;48.630;9.162;2024-03-22T01:53:26;98157.41;;;3.17;100.00
498;BME280;39559;48.630;9.162;2024-03-22T01:55:51;98157.47;;;2.74;100.00
498;BME280;39559;48.630;9.162;2024-03-22T01:58:18;98154.03;;;2.84;100.00
498;BME280;39559;48.630;9.162;2024-03-22T02:00:43;98148.06;;;2.92;100.00
498;BME280;39559;48.630;9.162;2024-03-22T02:03:09;98149.75;;;2.94;100.00
498;BME280;39559;48.630;9.162;2024-03-22T02:05:35;98151.50;;;2.87;100.00
498;BME280;39559;48.630;9.162;2024-03-22T02:10:07;98153.19;;;2.75;100.00
498;BME280;39559;48.630;9.162;2024-03-22T02:12:34;98163.47;;;2.52;100.00
498;BME280;39559;48.630;9.162;2024-03-22T02:14:59;98166.84;;;2.34;100.00
498;BME280;39559;48.630;9.162;2024-03-22T02:17:25;98156.63;;;2.43;100.00
498;BME280;39559;48.630;9.162;2024-03-22T02:19:51;98153.22;;;2.44;100.00
498;BME280;39559;48.630;9.162;2024-03-22T02:22:16;98142.94;;;2.52;100.00
498;BME280;39559;48.630;9.162;2024-03-22T02:24:41;98146.38;;;2.64;100.00
498;BME280;39559;48.630;9.162;2024-03-22T02:27:07;98142.94;;;2.59;100.00
498;BME280;39559;48.630;9.162;2024-03-22T02:29:33;98141.22;;;2.71;100.00
498;BME280;39559;48.630;9.162;2024-03-22T02:34:05;98132.66;;;2.75;100.00
498;BME280;39559;48.630;9.162;2024-03-22T02:36:31;98119.88;;;2.58;100.00
498;BME280;39559;48.630;9.162;2024-03-22T02:38:56;98122.44;;;2.53;100.00
498;BME280;39559;48.630;9.162;2024-03-22T02:41:22;98125.84;;;2.49;100.00
498;BME280;39559;48.630;9.162;2024-03-22T02:43:47;98126.72;;;2.51;100.00
498;BME280;39559;48.630;9.162;2024-03-22T02:46:13;98125.00;;;2.44;100.00
498;BME280;39559;48.630;9.162;2024-03-22T02:48:38;98127.56;;;2.33;100.00
498;BME280;39559;48.630;9.162;2024-03-22T02:51:04;98125.84;;;2.29;100.00
498;BME280;39559;48.630;9.162;2024-03-22T02:53:29;98121.56;;;2.43;100.00
498;BME280;39559;48.630;9.162;2024-03-22T02:58:04;98118.16;;;2.37;100.00
498;BME280;39559;48.630;9.162;2024-03-22T03:00:31;98110.47;;;2.41;100.00
498;BME280;39559;48.630;9.162;2024-03-22T03:02:56;98113.88;;;2.42;100.00
498;BME280;39559;48.630;9.162;2024-03-22T03:05:22;98106.16;;;2.11;100.00
498;BME280;39559;48.630;9.162;2024-03-22T03:07:50;98117.28;;;2.10;100.00
498;BME280;39559;48.630;9.162;2024-03-22T03:10:16;98118.06;;;1.75;100.00
498;BME280;39559;48.630;9.162;2024-03-22T03:12:42;98118.09;;;1.92;100.00
498;BME280;39559;48.630;9.162;2024-03-22T03:15:07;98112.19;;;2.13;100.00
498;BME280;39559;48.630;9.162;2024-03-22T03:17:33;98114.72;;;2.25;100.00
498;BME280;39559;48.630;9.162;2024-03-22T03:22:03;98119.03;;;2.20;100.00
498;BME280;39559;48.630;9.162;2024-03-22T03:24:29;98107.06;;;2.13;100.00
498;BME280;39559;48.630;9.162;2024-03-22T03:26:54;98111.28;;;1.89;100.00
498;BME280;39559;48.630;9.162;2024-03-22T03:29:20;98118.06;;;1.80;100.00
498;BME280;39559;48.630;9.162;2024-03-22T03:31:45;98128.31;;;1.80;100.00
498;BME280;39559;48.630;9.162;2024-03-22T03:34:11;98121.53;;;1.94;100.00
498;BME280;39559;48.630;9.162;2024-03-22T03:36:36;98118.13;;;2.18;100.00
498;BME280;39559;48.630;9.162;2024-03-22T03:39:02;98112.16;;;2.10;100.00
498;BME280;39559;48.630;9.162;2024-03-22T03:41:29;98106.16;;;2.11;100.00
498;BME280;39559;48.630;9.162;2024-03-22T03:46:01;98101.06;;;2.42;100.00
498;BME280;39559;48.630;9.162;2024-03-22T03:48:27;98102.78;;;2.49;100.00
498;BME280;39559;48.630;9.162;2024-03-22T03:50:54;98093.41;;;2.51;100.00
498;BME280;39559;48.630;9.162;2024-03-22T03:53:21;98085.69;;;2.53;100.00
498;BME280;39559;48.630;9.162;2024-03-22T03:55:47;98087.41;;;2.46;100.00
498;BME280;39559;48.630;9.162;2024-03-22T03:58:12;98079.72;;;2.43;100.00
498;BME280;39559;48.630;9.162;2024-03-22T04:00:38;98070.31;;;2.33;100.00
498;BME280;39559;48.630;9.162;2024-03-22T04:03:03;98069.47;;;2.27;100.00
498;BME280;39559;48.630;9.162;2024-03-22T04:05:29;98074.59;;;2.24;100.00
498;BME280;39559;48.630;9.162;2024-03-22T04:10:01;98080.56;;;2.09;100.00
498;BME280;39559;48.630;9.162;2024-03-22T04:12:28;98082.28;;;1.97;100.00
498;BME280;39559;48.630;9.162;2024-03-22T04:14:54;98084.78;;;1.89;100.00
498;BME280;39559;48.630;9.162;2024-03-22T04:17:19;98092.47;;;1.80;100.00
498;BME280;39559;48.630;9.162;2024-03-22T04:19:45;98091.63;;;1.73;100.00
498;BME280;39559;48.630;9.162;2024-03-22T04:22:10;98078.84;;;1.82;100.00
498;BME280;39559;48.630;9.162;2024-03-22T04:24:36;98082.25;;;1.87;100.00
498;BME280;39559;48.630;9.162;2024-03-22T04:27:02;98083.97;;;1.91;100.00
498;BME280;39559;48.630;9.162;2024-03-22T04:29:27;98076.28;;;2.01;100.00
498;BME280;39559;48.630;9.162;2024-03-22T04:34:01;98068.59;;;1.95;100.00
498;BME280;39559;48.630;9.162;2024-03-22T04:36:27;98075.41;;;1.92;100.00
498;BME280;39559;48.630;9.162;2024-03-22T04:38:53;98074.56;;;1.94;100.00
498;BME280;39559;48.630;9.162;2024-03-22T04:41:18;98075.41;;;1.94;100.00
498;BME280;39559;48.630;9.162;2024-03-22T04:43:44;98074.56;;;1.94;100.00
498;BME280;39559;48.630;9.162;2024-03-22T04:46:09;98079.72;;;1.97;100.00
498;BME280;39559;48.630;9.162;2024-03-22T04:48:34;98089.94;;;2.09;100.00
498;BME280;39559;48.630;9.162;2024-03-22T04:51:00;98085.69;;;2.19;100.00
498;BME280;39559;48.630;9.162;2024-03-22T04:53:25;98089.09;;;2.28;100.00
498;BME280;39559;48.630;9.162;2024-03-22T04:58:00;98088.25;;;2.36;100.00
498;BME280;39559;48.630;9.162;2024-03-22T05:00:26;98089.97;;;2.46;100.00
498;BME280;39559;48.630;9.162;2024-03-22T05:02:53;98083.97;;;2.28;100.00
498;BME280;39559;48.630;9.162;2024-03-22T05:05:19;98088.25;;;2.14;100.00
498;BME280;39559;48.630;9.162;2024-03-22T05:07:45;98089.94;;;2.10;100.00
498;BME280;39559;48.630;9.162;2024-03-22T05:10:11;98097.66;;;2.30;100.00
498;BME280;39559;48.630;9.162;2024-03-22T05:12:36;98093.38;;;2.45;100.00
498;BME280;39559;48.630;9.162;2024-03-22T05:15:03;98095.94;;;2.48;100.00
498;BME280;39559;48.630;9.162;2024-03-22T05:17:29;98086.53;;;2.58;100.00
498;BME280;39559;48.630;9.162;2024-03-22T05:22:00;98084.84;;;2.54;100.00
498;BME280;39559;48.630;9.162;2024-03-22T05:24:26;98072.88;;;2.57;100.00
498;BME280;39559;48.630;9.162;2024-03-22T05:26:53;98077.13;;;2.63;100.00
498;BME280;39559;48.630;9.162;2024-03-22T05:29:18;98070.28;;;2.69;100.00
498;BME280;39559;48.630;9.162;2024-03-22T05:31:50;98072.84;;;2.63;100.00
498;BME280;39559;48.630;9.162;2024-03-22T05:34:17;98058.34;;;2.62;100.00
498;BME280;39559;48.630;9.162;2024-03-22T05:36:45;98060.88;;;2.55;100.00
498;BME280;39559;48.630;9.162;2024-03-22T05:39:10;98055.78;;;2.47;100.00
498;BME280;39559;48.630;9.162;2024-03-22T05:41:37;98058.34;;;2.39;100.00
498;BME280;39559;48.630;9.162;2024-03-22T05:45:59;98060.91;;;2.64;100.00
498;BME280;39559;48.630;9.162;2024-03-22T05:48:24;98060.03;;;2.69;100.00
498;BME280;39559;48.630;9.162;2024-03-22T05:50:51;98056.63;;;2.64;100.00
498;BME280;39559;48.630;9.162;2024-03-22T05:53:17;98041.22;;;2.72;100.00
498;BME280;39559;48.630;9.162;2024-03-22T05:55:46;98052.34;;;2.71;100.00
498;BME280;39559;48.630;9.162;2024-03-22T05:58:11;98042.06;;;2.80;100.00
498;BME280;39559;48.630;9.162;2024-03-22T06:00:37;98044.63;;;2.73;100.00
498;BME280;39559;48.630;9.162;2024-03-22T06:03:03;98036.09;;;2.58;100.00
498;BME280;39559;48.630;9.162;2024-03-22T06:05:29;98044.69;;;2.48;100.00
498;BME280;39559;48.630;9.162;2024-03-22T06:09:59;98048.06;;;2.55;100.00
498;BME280;39559;48.630;9.162;2024-03-22T06:12:25;98058.28;;;2.81;100.00
498;BME280;39559;48.630;9.162;2024-03-22T06:14:50;98036.03;;;2.91;100.00
498;BME280;39559;48.630;9.162;2024-03-22T06:17:16;98027.44;;;2.95;100.00
498;BME280;39559;48.630;9.162;2024-03-22T06:19:42;98027.53;;;2.84;100.00
498;BME280;39559;48.630;9.162;2024-03-22T06:22:07;98026.63;;;2.91;100.00
498;BME280;39559;48.630;9.162;2024-03-22T06:24:33;98022.34;;;2.93;100.00
498;BME280;39559;48.630;9.162;2024-03-22T06:26:58;98029.97;;;3.13;100.00
498;BME280;39559;48.630;9.162;2024-03-22T06:29:24;98032.50;;;3.18;100.00
498;BME280;39559;48.630;9.162;2024-03-22T06:33:59;98021.31;;;3.37;100.00
498;BME280;39559;48.630;9.162;2024-03-22T06:36:30;98028.94;;;3.51;100.00
498;BME280;39559;48.630;9.162;2024-03-22T06:38:57;98030.69;;;3.44;100.00
498;BME280;39559;48.630;9.162;2024-03-22T06:41:26;98027.22;;;3.53;100.00
498;BME280;39559;48.630;9.162;2024-03-22T06:43:52;98032.25;;;3.67;100.00
498;BME280;39559;48.630;9.162;2024-03-22T06:46:17;98031.31;;;3.80;100.00
498;BME280;39559;48.630;9.162;2024-03-22T06:48:44;98027.72;;;4.00;100.00
498;BME280;39559;48.630;9.162;2024-03-22T06:51:11;98019.84;;;4.23;100.00
498;BME280;39559;48.630;9.162;2024-03-22T06:53:37;98021.41;;;4.41;100.00
498;BME280;39559;48.630;9.162;2024-03-22T06:58:00;98012.63;;;4.62;100.00
498;BME280;39559;48.630;9.162;2024-03-22T07:00:26;98009.94;;;4.73;100.00
498;BME280;39559;48.630;9.162;2024-03-22T07:02:51;98008.22;;;4.73;100.00
498;BME280;39559;48.630;9.162;2024-03-22T07:05:17;98008.94;;;4.85;100.00
498;BME280;39559;48.630;9.162;2024-03-22T07:07:43;98011.34;;;5.00;100.00
498;BME280;39559;48.630;9.162;2024-03-22T07:10:11;98014.66;;;5.10;100.00
498;BME280;39559;48.630;9.162;2024-03-22T07:12:37;98012.69;;;5.32;100.00
498;BME280;39559;48.630;9.162;2024-03-22T07:15:02;98010.53;;;5.63;100.00
498;BME280;39559;48.630;9.162;2024-03-22T07:17:30;98009.41;;;5.81;100.00
498;BME280;39559;48.630;9.162;2024-03-22T07:22:03;98002.66;;;6.28;100.00
498;BME280;39559;48.630;9.162;2024-03-22T07:24:29;97998.00;;;6.49;100.00
498;BME280;39559;48.630;9.162;2024-03-22T07:26:54;97987.44;;;6.63;100.00
498;BME280;39559;48.630;9.162;2024-03-22T07:29:20;97977.53;;;6.85;100.00
498;BME280;39559;48.630;9.162;2024-03-22T07:31:46;97971.03;;;7.09;100.00
498;BME280;39559;48.630;9.162;2024-03-22T07:34:12;97978.63;;;7.57;100.00
498;BME280;39559;48.630;9.162;2024-03-22T07:36:38;97962.47;;;7.83;100.00
498;BME280;39559;48.630;9.162;2024-03-22T07:39:04;97950.66;;;8.09;100.00
498;BME280;39559;48.630;9.162;2024-03-22T07:41:34;97942.53;;;8.23;100.00
498;BME280;39559;48.630;9.162;2024-03-22T07:46:06;97932.06;;;8.27;100.00
498;BME280;39559;48.630;9.162;2024-03-22T07:48:31;97926.47;;;8.46;100.00
498;BME280;39559;48.630;9.162;2024-03-22T07:51:01;97918.59;;;8.80;100.00
498;BME280;39559;48.630;9.162;2024-03-22T07:53:27;97919.81;;;9.27;100.00
498;BME280;39559;48.630;9.162;2024-03-22T07:55:52;97908.94;;;9.44;100.00
498;BME280;39559;48.630;9.162;2024-03-22T07:58:19;97900.97;;;9.76;100.00
498;BME280;39559;48.630;9.162;2024-03-22T08:00:45;97906.41;;;9.95;100.00
498;BME280;39559;48.630;9.162;2024-03-22T08:03:15;97900.16;;;10.28;100.00
498;BME280;39559;48.630;9.162;2024-03-22T08:05:41;97901.50;;;10.63;100.00
498;BME280;39559;48.630;9.162;2024-03-22T08:09:58;97894.25;;;11.19;100.00
498;BME280;39559;48.630;9.162;2024-03-22T08:12:24;97884.66;;;11.43;100.00
498;BME280;39559;48.630;9.162;2024-03-22T08:14:50;97889.16;;;11.82;100.00
498;BME280;39559;48.630;9.162;2024-03-22T08:17:16;97882.91;;;12.08;100.00
498;BME280;39559;48.630;9.162;2024-03-22T08:19:42;97882.75;;;11.90;100.00
498;BME280;39559;48.630;9.162;2024-03-22T08:22:08;97887.19;;;12.09;100.00
498;BME280;39559;48.630;9.162;2024-03-22T08:24:33;97889.25;;;12.42;100.00
498;BME280;39559;48.630;9.162;2024-03-22T08:27:00;97889.28;;;12.21;100.00
498;BME280;39559;48.630;9.162;2024-03-22T08:29:25;97886.47;;;12.65;100.00
498;BME280;39559;48.630;9.162;2024-03-22T08:33:57;97872.25;;;12.73;100.00
498;BME280;39559;48.630;9.162;2024-03-22T08:36:23;97876.28;;;13.18;100.00
498;BME280;39559;48.630;9.162;2024-03-22T08:38:49;97862.63;;;13.32;100.00
498;BME280;39559;48.630;9.162;2024-03-22T08:41:16;97861.31;;;13.40;100.00
498;BME280;39559;48.630;9.162;2024-03-22T08:43:44;97859.88;;;13.16;100.00
498;BME280;39559;48.630;9.162;2024-03-22T08:46:12;97851.25;;;13.69;100.00
498;BME280;39559;48.630;9.162;2024-03-22T08:48:37;97850.31;;;14.05;100.00
498;BME280;39559;48.630;9.162;2024-03-22T08:51:07;97836.44;;;14.38;100.00
498;BME280;39559;48.630;9.162;2024-03-22T08:53:32;97834.50;;;14.59;100.00
498;BME280;39559;48.630;9.162;2024-03-22T08:57:59;97838.16;;;14.55;100.00
498;BME280;39559;48.630;9.162;2024-03-22T09:00:25;97836.56;;;14.86;100.00
498;BME280;39559;48.630;9.162;2024-03-22T09:02:50;97834.19;;;14.65;100.00
498;BME280;39559;48.630;9.162;2024-03-22T09:05:16;97824.59;;;14.48;100.00
498;BME280;39559;48.630;9.162;2024-03-22T09:07:42;97820.88;;;14.86;100.00
498;BME280;39559;48.630;9.162;2024-03-22T09:10:08;97813.88;;;14.53;100.00
498;BME280;39559;48.630;9.162;2024-03-22T09:12:34;97813.94;;;14.35;100.00
498;BME280;39559;48.630;9.162;2024-03-22T09:15:00;97821.88;;;14.67;100.00
498;BME280;39559;48.630;9.162;2024-03-22T09:17:26;97817.50;;;14.84;100.00
498;BME280;39559;48.630;9.162;2024-03-22T09:21:56;97811.09;;;15.21;100.00
498;BME280;39559;48.630;9.162;2024-03-22T09:24:22;97810.88;;;14.61;100.00
498;BME280;39559;48.630;9.162;2024-03-22T09:26:48;97811.25;;;15.02;100.00
498;BME280;39559;48.630;9.162;2024-03-22T09:29:14;97804.97;;;15.36;100.00
498;BME280;39559;48.630;9.162;2024-03-22T09:31:39;97799.97;;;15.48;100.00
498;BME280;39559;48.630;9.162;2024-03-22T09:34:05;97790.00;;;15.39;100.00
498;BME280;39559;48.630;9.162;2024-03-22T09:36:31;97782.75;;;15.44;100.00
498;BME280;39559;48.630;9.162;2024-03-22T09:39:02;97782.25;;;15.83;100.00
498;BME280;39559;48.630;9.162;2024-03-22T09:41:32;97782.72;;;16.04;100.00
498;BME280;39559;48.630;9.162;2024-03-22T09:45:57;97776.72;;;16.60;100.00
498;BME280;39559;48.630;9.162;2024-03-22T09:48:23;97771.50;;;16.31;78.80
498;BME280;39559;48.630;9.162;2024-03-22T09:50:50;97766.25;;;16.17;100.00
498;BME280;39559;48.630;9.162;2024-03-22T09:53:20;97758.69;;;16.82;83.82
498;BME280;39559;48.630;9.162;2024-03-22T09:55:49;97766.00;;;16.50;85.29
498;BME280;39559;48.630;9.162;2024-03-22T09:58:15;97754.03;;;15.72;83.10
498;BME280;39559;48.630;9.162;2024-03-22T10:00:44;97755.53;;;15.32;98.74
498;BME280;39559;48.630;9.162;2024-03-22T10:03:10;97759.72;;;15.65;100.00
498;BME280;39559;48.630;9.162;2024-03-22T10:05:36;97748.78;;;16.17;99.38
498;BME280;39559;48.630;9.162;2024-03-22T10:09:58;97742.66;;;16.45;84.95
498;BME280;39559;48.630;9.162;2024-03-22T10:12:24;97737.66;;;16.84;83.85
498;BME280;39559;48.630;9.162;2024-03-22T10:14:53;97737.09;;;16.64;76.15
498;BME280;39559;48.630;9.162;2024-03-22T10:17:20;97737.31;;;17.03;84.43
498;BME280;39559;48.630;9.162;2024-03-22T10:19:45;97731.53;;;17.38;78.37
498;BME280;39559;48.630;9.162;2024-03-22T10:22:17;97729.78;;;17.64;83.19
498;BME280;39559;48.630;9.162;2024-03-22T10:24:43;97719.59;;;17.59;72.90
498;BME280;39559;48.630;9.162;2024-03-22T10:27:09;97718.00;;;16.62;77.83
498;BME280;39559;48.630;9.162;2024-03-22T10:29:38;97717.44;;;16.16;84.73
498;BME280;39559;48.630;9.162;2024-03-22T10:33:55;97719.25;;;16.57;95.04
498;BME280;39559;48.630;9.162;2024-03-22T10:36:21;97708.34;;;17.04;85.74
498;BME280;39559;48.630;9.162;2024-03-22T10:38:50;97701.69;;;17.39;77.60
498;BME280;39559;48.630;9.162;2024-03-22T10:41:17;97710.13;;;17.44;86.95
498;BME280;39559;48.630;9.162;2024-03-22T10:43:43;97697.97;;;17.56;76.25
498;BME280;39559;48.630;9.162;2024-03-22T10:46:09;97693.97;;;17.50;75.28
498;BME280;39559;48.630;9.162;2024-03-22T10:48:39;97688.06;;;17.34;76.11
498;BME280;39559;48.630;9.162;2024-03-22T10:51:13;97675.84;;;17.20;85.82
498;BME280;39559;48.630;9.162;2024-03-22T10:53:41;97673.53;;;16.19;84.49
498;BME280;39559;48.630;9.162;2024-03-22T10:57:52;97675.38;;;17.00;75.09
498;BME280;39559;48.630;9.162;2024-03-22T11:00:27;97667.19;;;17.83;70.62
498;BME280;39559;48.630;9.162;2024-03-22T11:02:53;97667.00;;;18.36;69.39
498;BME280;39559;48.630;9.162;2024-03-22T11:05:19;97654.69;;;18.98;62.70
498;BME280;39559;48.630;9.162;2024-03-22T11:07:45;97651.06;;;18.88;60.93
498;BME280;39559;48.630;9.162;2024-03-22T11:10:14;97654.72;;;19.09;63.48
498;BME280;39559;48.630;9.162;2024-03-22T11:12:42;97651.31;;;19.31;59.66
498;BME280;39559;48.630;9.162;2024-03-22T11:15:09;97649.91;;;18.92;60.55
498;BME280;39559;48.630;9.162;2024-03-22T11:17:36;97651.59;;;19.04;62.50
498;BME280;39559;48.630;9.162;2024-03-22T11:21:48;97636.94;;;17.91;70.60
498;BME280;39559;48.630;9.162;2024-03-22T11:24:15;97630.34;;;19.18;71.45
498;BME280;39559;48.630;9.162;2024-03-22T11:26:53;97630.53;;;19.04;74.55
498;BME280;39559;48.630;9.162;2024-03-22T11:29:19;97634.16;;;18.66;68.69
498;BME280;39559;48.630;9.162;2024-03-22T11:31:44;97630.31;;;18.35;83.70
498;BME280;39559;48.630;9.162;2024-03-22T11:34:10;97620.31;;;19.35;71.91
498;BME280;39559;48.630;9.162;2024-03-22T11:36:37;97614.44;;;19.20;71.67
498;BME280;39559;48.630;9.162;2024-03-22T11:39:05;97613.19;;;19.60;71.84
498;BME280;39559;48.630;9.162;2024-03-22T11:41:31;97611.75;;;19.55;69.91
498;BME280;39559;48.630;9.162;2024-03-22T11:45:48;97604.09;;;19.75;64.75
498;BME280;39559;48.630;9.162;2024-03-22T11:48:14;97593.56;;;19.86;62.03
498;BME280;39559;48.630;9.162;2024-03-22T11:50:40;97596.44;;;20.49;61.22
498;BME280;39559;48.630;9.162;2024-03-22T11:53:06;97586.88;;;20.48;60.67
498;BME280;39559;48.630;9.162;2024-03-22T11:55:32;97592.03;;;19.03;58.52
498;BME280;39559;48.630;9.162;2024-03-22T11:57:58;97583.50;;;18.40;64.52
498;BME280;39559;48.630;9.162;2024-03-22T12:00:24;97586.06;;;19.24;68.58
498;BME280;39559;48.630;9.162;2024-03-22T12:02:51;97584.22;;;19.48;62.78
498;BME280;39559;48.630;9.162;2024-03-22T12:05:20;97577.59;;;19.43;57.17
498;BME280;39559;48.630;9.162;2024-03-22T12:09:45;97570.72;;;20.19;58.86
498;BME280;39559;48.630;9.162;2024-03-22T12:12:13;97570.88;;;20.06;64.23
498;BME280;39559;48.630;9.162;2024-03-22T12:14:39;97564.06;;;20.04;58.93
498;BME280;39559;48.630;9.162;2024-03-22T12:17:06;97557.56;;;20.51;56.58
498;BME280;39559;48.630;9.162;2024-03-22T12:19:33;97550.69;;;20.39;56.56
498;BME280;39559;48.630;9.162;2024-03-22T12:21:59;97542.47;;;20.21;57.30
498;BME280;39559;48.630;9.162;2024-03-22T12:24:26;97537.63;;;19.83;57.94
498;BME280;39559;48.630;9.162;2024-03-22T12:26:52;97535.34;;;19.89;58.92
498;BME280;39559;48.630;9.162;2024-03-22T12:29:19;97523.97;;;20.32;53.88
498;BME280;39559;48.630;9.162;2024-03-22T12:33:42;97510.28;;;19.95;59.17
498;BME280;39559;48.630;9.162;2024-03-22T12:36:07;97513.63;;;20.08;57.94
498;BME280;39559;48.630;9.162;2024-03-22T12:38:33;97502.38;;;19.95;59.36
498;BME280;39559;48.630;9.162;2024-03-22T12:41:05;97494.25;;;19.87;60.00
498;BME280;39559;48.630;9.162;2024-03-22T12:43:31;97489.47;;;19.69;58.50
498;BME280;39559;48.630;9.162;2024-03-22T12:45:57;97478.91;;;19.92;60.61
498;BME280;39559;48.630;9.162;2024-03-22T12:48:23;97481.13;;;20.40;57.93
498;BME280;39559;48.630;9.162;2024-03-22T12:50:48;97480.50;;;20.90;58.27
498;BME280;39559;48.630;9.162;2024-03-22T12:53:14;97475.91;;;20.61;58.11
498;BME280;39559;48.630;9.162;2024-03-22T12:57:40;97467.00;;;20.41;59.72
498;BME280;39559;48.630;9.162;2024-03-22T13:00:06;97463.59;;;20.18;56.30
498;BME280;39559;48.630;9.162;2024-03-22T13:02:40;97459.44;;;20.37;51.74
498;BME280;39559;48.630;9.162;2024-03-22T13:05:06;97443.84;;;19.69;52.52
498;BME280;39559;48.630;9.162;2024-03-22T13:07:32;97445.19;;;20.39;53.80
498;BME280;39559;48.630;9.162;2024-03-22T13:09:58;97436.19;;;20.63;54.20
498;BME280;39559;48.630;9.162;2024-03-22T13:12:26;97434.41;;;20.63;56.64
498;BME280;39559;48.630;9.162;2024-03-22T13:14:52;97432.13;;;20.80;60.13
498;BME280;39559;48.630;9.162;2024-03-22T13:17:18;97430.91;;;21.24;53.54
498;BME280;39559;48.630;9.162;2024-03-22T13:21:36;97418.25;;;20.87;53.68
498;BME280;39559;48.630;9.162;2024-03-22T13:24:02;97411.31;;;20.86;53.39
498;BME280;39559;48.630;9.162;2024-03-22T13:26:27;97403.94;;;21.61;51.21
498;BME280;39559;48.630;9.162;2024-03-22T13:28:55;97403.38;;;20.86;50.01
498;BME280;39559;48.630;9.162;2024-03-22T13:31:21;97398.50;;;21.13;53.50
498;BME280;39559;48.630;9.162;2024-03-22T13:33:46;97384.06;;;22.26;52.26
498;BME280;39559;48.630;9.162;2024-03-22T13:36:19;97376.84;;;21.89;50.99
498;BME280;39559;48.630;9.162;2024-03-22T13:38:45;97380.69;;;19.35;54.94
498;BME280;39559;48.630;9.162;2024-03-22T13:41:11;97379.50;;;19.28;60.09
498;BME280;39559;48.630;9.162;2024-03-22T13:45:31;97368.09;;;20.14;53.40
498;BME280;39559;48.630;9.162;2024-03-22T13:47:56;97358.22;;;20.80;51.60
498;BME280;39559;48.630;9.162;2024-03-22T13:50:22;97362.22;;;20.74;50.35
498;BME280;39559;48.630;9.162;2024-03-22T13:52:48;97357.50;;;20.05;53.29
498;BME280;39559;48.630;9.162;2024-03-22T13:55:14;97357.09;;;20.09;55.18
498;BME280;39559;48.630;9.162;2024-03-22T13:57:40;97354.06;;;19.93;53.10
498;BME280;39559;48.630;9.162;2024-03-22T14:00:05;97356.03;;;20.43;48.52
498;BME280;39559;48.630;9.162;2024-03-22T14:02:32;97348.50;;;20.28;51.66
498;BME280;39559;48.630;9.162;2024-03-22T14:04:58;97351.00;;;20.09;50.67
498;BME280;39559;48.630;9.162;2024-03-22T14:09:27;97338.00;;;20.17;53.28
498;BME280;39559;48.630;9.162;2024-03-22T14:11:54;97338.03;;;20.48;53.14
498;BME280;39559;48.630;9.162;2024-03-22T14:14:20;97330.28;;;20.25;54.20
498;BME280;39559;48.630;9.162;2024-03-22T14:16:45;97323.81;;;18.89;54.62
498;BME280;39559;48.630;9.162;2024-03-22T14:19:11;97321.78;;;18.92;63.29
498;BME280;39559;48.630;9.162;2024-03-22T14:21:37;97322.53;;;19.38;53.24
498;BME280;39559;48.630;9.162;2024-03-22T14:24:04;97314.75;;;19.69;55.04
498;BME280;39559;48.630;9.162;2024-03-22T14:26:30;97311.03;;;20.35;53.30